Time;durP1;ratioP1;P1;durP2;ratioP2;P2;SDS_P1;SDS_P2;PMS_P1;PMS_P2;Temp;Humidity;BMP_temperature;BMP_pressure;BME280_temperature;BME280_humidity;BME280_pressure;Samples;Min_cycle;Max_cycle;Signal;HPM_P1;HPM_P2
2021/07/04 00:02:05;;;;;;;6.90;4.03;;;17.70;99.90;;;;;;4943098;28;20217;-91
2021/07/04 00:04:31;;;;;;;7.47;5.03;;;17.70;99.90;;;;;;4943070;28;20228;-91
2021/07/04 00:06:57;;;;;;;6.77;5.50;;;17.70;99.90;;;;;;4942750;28;20631;-92
2021/07/04 00:09:23;;;;;;;13.47;5.37;;;17.70;99.90;;;;;;4943814;28;20254;-93
2021/07/04 00:11:48;;;;;;;7.00;5.10;;;17.80;99.90;;;;;;4943589;28;20602;-92
2021/07/04 00:14:14;;;;;;;8.30;6.17;;;17.90;99.90;;;;;;4941945;28;20264;-92
2021/07/04 00:16:42;;;;;;;8.20;5.70;;;18.00;99.90;;;;;;4957676;28;20738;-92
2021/07/04 00:19:08;;;;;;;10.90;6.97;;;18.00;99.90;;;;;;4958244;28;20221;-92
2021/07/04 00:21:33;;;;;;;10.77;6.37;;;18.00;99.90;;;;;;4943011;28;20243;-91
2021/07/04 00:23:59;;;;;;;9.07;6.00;;;18.00;99.90;;;;;;4942601;28;20194;-91
2021/07/04 00:26:25;;;;;;;12.17;7.67;;;18.00;99.90;;;;;;4942410;28;20229;-92
2021/07/04 00:28:51;;;;;;;14.57;7.50;;;18.00;99.90;;;;;;4958080;28;20240;-92
2021/07/04 00:31:16;;;;;;;14.20;8.13;;;18.00;99.90;;;;;;4957432;28;20850;-92
2021/07/04 00:33:42;;;;;;;16.33;9.57;;;18.00;99.90;;;;;;4942677;28;20227;-92
2021/07/04 00:36:08;;;;;;;17.97;9.97;;;18.10;99.90;;;;;;4941787;28;20206;-92
2021/07/04 00:38:37;;;;;;;21.57;10.13;;;18.10;99.90;;;;;;4941791;28;20190;-91
2021/07/04 00:41:04;;;;;;;20.43;11.43;;;18.10;99.90;;;;;;4942574;28;20229;-91
2021/07/04 00:43:30;;;;;;;21.63;10.50;;;18.10;99.90;;;;;;4949394;28;20213;-92
2021/07/04 00:45:56;;;;;;;20.53;11.43;;;18.10;99.90;;;;;;4965877;28;20683;-93
2021/07/04 00:48:22;;;;;;;24.97;12.30;;;18.10;99.90;;;;;;4957026;28;20260;-91
2021/07/04 00:50:49;;;;;;;21.87;11.60;;;18.10;99.90;;;;;;4956862;28;20268;-91
2021/07/04 00:53:15;;;;;;;22.77;11.60;;;18.10;99.90;;;;;;4941464;28;21130;-91
2021/07/04 00:55:41;;;;;;;22.80;11.67;;;18.10;99.90;;;;;;4957902;28;20253;-92
2021/07/04 00:58:07;;;;;;;25.83;12.70;;;18.10;99.90;;;;;;4957972;28;20260;-90
2021/07/04 01:00:35;;;;;;;25.53;11.77;;;18.00;99.90;;;;;;4957526;28;20647;-91
2021/07/04 01:03:03;;;;;;;22.83;12.30;;;18.00;99.90;;;;;;4942581;28;20197;-91
2021/07/04 01:05:31;;;;;;;24.73;12.20;;;18.00;99.90;;;;;;4958020;28;20224;-92
2021/07/04 01:07:59;;;;;;;22.90;13.87;;;18.00;99.90;;;;;;4942171;28;20584;-91
2021/07/04 01:10:26;;;;;;;26.87;13.03;;;18.00;99.90;;;;;;4940391;28;20240;-91
2021/07/04 01:12:54;;;;;;;22.03;12.20;;;17.90;99.90;;;;;;4941010;28;20225;-92
2021/07/04 01:15:25;;;;;;;25.43;11.90;;;17.90;99.90;;;;;;4955979;28;20332;-93
2021/07/04 01:17:54;;;;;;;28.07;11.73;;;17.90;99.90;;;;;;4950576;28;20810;-93
2021/07/04 01:20:23;;;;;;;25.13;12.53;;;17.80;99.90;;;;;;4942458;28;20248;-92
2021/07/04 01:23:02;;;;;;;23.23;13.07;;;17.80;99.90;;;;;;4973512;28;20224;-91
2021/07/04 01:25:30;;;;;;;22.70;12.27;;;17.70;99.90;;;;;;4942019;28;20262;-91
2021/07/04 01:27:57;;;;;;;24.77;12.33;;;17.70;99.90;;;;;;4942023;28;20357;-91
2021/07/04 01:30:23;;;;;;;21.80;11.67;;;17.70;99.90;;;;;;4940005;28;20237;-91
2021/07/04 01:32:50;;;;;;;25.20;11.33;;;17.70;99.90;;;;;;4942389;29;20237;-91
2021/07/04 01:35:16;;;;;;;24.90;11.70;;;17.80;99.90;;;;;;4942634;28;20217;-91
2021/07/04 01:37:42;;;;;;;28.33;11.17;;;17.80;99.90;;;;;;4941970;28;20559;-91
2021/07/04 01:40:09;;;;;;;22.07;11.60;;;17.80;99.90;;;;;;4956751;28;20225;-90
2021/07/04 01:42:36;;;;;;;23.20;11.67;;;17.90;99.90;;;;;;4956256;28;20221;-91
2021/07/04 01:45:03;;;;;;;23.00;12.13;;;17.70;99.90;;;;;;4941247;28;20201;-91
2021/07/04 01:47:28;;;;;;;24.57;12.37;;;17.80;99.90;;;;;;4941835;29;20214;-91
2021/07/04 01:49:54;;;;;;;20.23;11.77;;;17.80;99.90;;;;;;4941395;28;20229;-92
2021/07/04 01:52:20;;;;;;;21.97;11.07;;;17.90;99.90;;;;;;4940992;28;20280;-91
2021/07/04 01:54:45;;;;;;;26.17;11.83;;;17.90;99.90;;;;;;4940764;28;20636;-90
2021/07/04 01:57:11;;;;;;;22.07;12.67;;;17.80;99.90;;;;;;4940581;28;20200;-91
2021/07/04 01:59:45;;;;;;;21.80;11.20;;;17.80;99.90;;;;;;4935674;28;20198;-91
2021/07/04 02:02:11;;;;;;;26.17;14.50;;;17.80;99.90;;;;;;4956054;28;20308;-91
2021/07/04 02:04:41;;;;;;;22.27;13.17;;;17.80;99.90;;;;;;4957132;28;20272;-91
2021/07/04 02:07:17;;;;;;;25.20;12.80;;;17.80;99.90;;;;;;4941922;28;20227;-92
2021/07/04 02:09:48;;;;;;;24.10;13.00;;;17.80;99.90;;;;;;4940839;28;20221;-89
2021/07/04 02:12:15;;;;;;;22.97;12.73;;;17.80;99.90;;;;;;4956980;28;20474;-90
2021/07/04 02:14:42;;;;;;;30.47;15.50;;;17.80;99.90;;;;;;4940603;29;20802;-92
2021/07/04 02:17:08;;;;;;;27.73;13.87;;;17.80;99.90;;;;;;4941945;28;20221;-91
2021/07/04 02:19:35;;;;;;;26.23;12.37;;;17.80;99.90;;;;;;4940321;28;20221;-91
2021/07/04 02:22:02;;;;;;;21.83;12.77;;;17.70;99.90;;;;;;4957851;28;20253;-91
2021/07/04 02:24:28;;;;;;;28.00;14.03;;;17.70;99.90;;;;;;4943120;28;20217;-91
2021/07/04 02:26:54;;;;;;;34.97;14.13;;;17.70;99.90;;;;;;4945785;29;20193;-91
2021/07/04 02:29:20;;;;;;;23.13;13.97;;;17.70;99.90;;;;;;4960270;28;20225;-90
2021/07/04 02:31:46;;;;;;;27.97;13.57;;;17.70;99.90;;;;;;4943764;28;20235;-92
2021/07/04 02:34:12;;;;;;;25.20;14.00;;;17.70;99.90;;;;;;4944224;28;20221;-91
2021/07/04 02:36:38;;;;;;;25.97;12.80;;;17.80;99.90;;;;;;4935967;28;20225;-91
2021/07/04 02:39:04;;;;;;;24.10;13.30;;;17.70;99.90;;;;;;4944225;28;20197;-92
2021/07/04 02:41:30;;;;;;;21.60;11.50;;;17.70;99.90;;;;;;4960205;28;20190;-91
2021/07/04 02:43:56;;;;;;;27.87;13.77;;;17.60;99.90;;;;;;4959739;28;20258;-91
2021/07/04 02:46:22;;;;;;;27.10;14.33;;;17.70;99.90;;;;;;4959468;28;20217;-91
2021/07/04 02:48:47;;;;;;;21.87;13.57;;;17.70;99.90;;;;;;4943640;28;20224;-91
2021/07/04 02:51:13;;;;;;;25.30;12.67;;;17.70;99.90;;;;;;4944268;28;20223;-92
2021/07/04 02:53:39;;;;;;;28.47;14.07;;;17.70;99.90;;;;;;4944205;28;20331;-91
2021/07/04 02:56:04;;;;;;;25.33;12.87;;;17.70;99.90;;;;;;4959081;28;20610;-92
2021/07/04 02:58:30;;;;;;;35.07;13.47;;;17.70;99.90;;;;;;4959839;28;20518;-95
2021/07/04 03:00:56;;;;;;;24.83;14.10;;;17.70;99.90;;;;;;4944422;28;20229;-92
2021/07/04 03:03:21;;;;;;;30.57;13.07;;;17.70;99.90;;;;;;4959992;28;20360;-92
2021/07/04 03:05:47;;;;;;;25.80;12.57;;;17.70;99.90;;;;;;4960521;28;20198;-93
2021/07/04 03:08:13;;;;;;;26.47;10.97;;;17.70;99.90;;;;;;4944855;28;20239;-92
2021/07/04 03:10:39;;;;;;;23.13;13.00;;;17.70;99.90;;;;;;4959236;28;20730;-91
2021/07/04 03:13:05;;;;;;;21.97;11.63;;;17.70;99.90;;;;;;4944521;28;20229;-90
2021/07/04 03:15:30;;;;;;;24.43;12.70;;;17.70;99.90;;;;;;4959540;28;20231;-92
2021/07/04 03:17:56;;;;;;;25.20;12.77;;;17.70;99.90;;;;;;4944683;29;20205;-92
2021/07/04 03:20:22;;;;;;;20.70;11.27;;;17.70;99.90;;;;;;4959087;28;20687;-92
2021/07/04 03:22:48;;;;;;;23.13;12.30;;;17.70;99.90;;;;;;4944251;28;20241;-92
2021/07/04 03:25:15;;;;;;;28.80;11.87;;;17.70;99.90;;;;;;4927122;28;20327;-92
2021/07/04 03:27:41;;;;;;;23.40;12.27;;;17.60;99.90;;;;;;4943874;28;20616;-90
2021/07/04 03:30:11;;;;;;;28.40;13.93;;;17.60;99.90;;;;;;4942883;28;20221;-91
2021/07/04 03:32:37;;;;;;;23.77;14.00;;;17.60;99.90;;;;;;4943390;28;20289;-92
2021/07/04 03:35:08;;;;;;;21.27;12.30;;;17.70;99.90;;;;;;4942533;28;20241;-91
2021/07/04 03:37:35;;;;;;;24.40;12.03;;;17.70;99.90;;;;;;4958571;28;20210;-92
2021/07/04 03:40:02;;;;;;;24.00;13.67;;;17.70;99.90;;;;;;4949674;28;20988;-92
2021/07/04 03:42:28;;;;;;;22.77;13.10;;;17.70;99.90;;;;;;4942933;28;20225;-93
2021/07/04 03:44:54;;;;;;;23.13;13.13;;;17.70;99.90;;;;;;4944744;29;20200;-91
2021/07/04 03:47:23;;;;;;;24.90;13.03;;;17.60;99.90;;;;;;4966729;28;20221;-92
2021/07/04 03:49:49;;;;;;;24.77;13.77;;;17.70;99.90;;;;;;4958493;28;20236;-92
2021/07/04 03:52:15;;;;;;;26.00;12.70;;;17.70;99.90;;;;;;4942069;28;20217;-91
2021/07/04 03:54:40;;;;;;;23.53;13.87;;;17.70;99.90;;;;;;4943086;28;20297;-92
2021/07/04 03:57:21;;;;;;;24.10;13.27;;;17.60;99.90;;;;;;4958072;28;20201;-93
2021/07/04 03:59:52;;;;;;;22.53;13.03;;;17.60;99.90;;;;;;4945105;28;20197;-92
2021/07/04 04:02:18;;;;;;;23.30;13.07;;;17.60;99.90;;;;;;4943945;28;20579;-92
2021/07/04 04:04:44;;;;;;;24.13;11.77;;;17.60;99.90;;;;;;4943474;28;20253;-91
2021/07/04 04:07:10;;;;;;;23.23;12.53;;;17.70;99.90;;;;;;4941699;28;20245;-92
2021/07/04 04:09:35;;;;;;;24.03;12.83;;;17.70;99.90;;;;;;4974110;28;20227;-92
2021/07/04 04:12:01;;;;;;;26.97;13.80;;;17.80;99.90;;;;;;4943016;28;20722;-92
2021/07/04 04:14:27;;;;;;;23.30;13.07;;;17.90;99.90;;;;;;4942378;28;20680;-92
2021/07/04 04:16:53;;;;;;;20.50;11.60;;;18.00;99.90;;;;;;4957782;28;20279;-92
2021/07/04 04:19:18;;;;;;;23.37;12.70;;;18.00;99.90;;;;;;4941725;28;20641;-92
2021/07/04 04:21:44;;;;;;;23.27;13.57;;;17.90;99.90;;;;;;4942146;28;20304;-92
2021/07/04 04:24:10;;;;;;;24.40;11.47;;;18.00;99.90;;;;;;4957708;28;20284;-92
2021/07/04 04:26:36;;;;;;;25.67;12.97;;;18.00;99.90;;;;;;4941898;28;20668;-94
2021/07/04 04:29:01;;;;;;;22.63;12.83;;;18.00;99.90;;;;;;4941776;28;20656;-91
2021/07/04 04:31:27;;;;;;;24.00;12.63;;;18.00;99.90;;;;;;4957812;28;20243;-92
2021/07/04 04:33:53;;;;;;;24.63;12.50;;;18.00;99.90;;;;;;4941830;28;20237;-94
2021/07/04 04:36:19;;;;;;;23.63;11.87;;;18.00;99.90;;;;;;4941892;28;20316;-92
2021/07/04 04:38:45;;;;;;;21.97;12.33;;;18.10;99.90;;;;;;4942473;28;20205;-93
2021/07/04 04:41:10;;;;;;;23.20;14.13;;;18.10;99.90;;;;;;4950478;28;20233;-92
2021/07/04 04:43:36;;;;;;;22.30;12.03;;;18.00;99.90;;;;;;4958084;28;20722;-93
2021/07/04 04:46:02;;;;;;;21.13;11.23;;;18.10;99.90;;;;;;4941604;28;20240;-92
2021/07/04 04:48:28;;;;;;;23.13;11.70;;;18.10;99.90;;;;;;4941324;28;20283;-92
2021/07/04 04:50:53;;;;;;;19.47;12.10;;;18.10;99.90;;;;;;4941038;28;20224;-93
2021/07/04 04:53:19;;;;;;;25.77;11.10;;;18.10;99.90;;;;;;4956976;28;20299;-92
2021/07/04 04:55:45;;;;;;;16.00;10.77;;;18.10;99.90;;;;;;4956985;28;20357;-93
2021/07/04 04:58:11;;;;;;;22.97;12.23;;;18.20;99.90;;;;;;4941833;28;20332;-92
2021/07/04 05:00:36;;;;;;;25.07;12.83;;;18.30;99.90;;;;;;4957313;28;20225;-91
2021/07/04 05:03:06;;;;;;;22.13;11.57;;;18.20;99.90;;;;;;4941084;28;20665;-91
2021/07/04 05:05:33;;;;;;;20.37;12.07;;;18.20;99.90;;;;;;4941452;29;20185;-92
2021/07/04 05:07:59;;;;;;;21.33;11.77;;;18.30;99.90;;;;;;4942201;28;20221;-91
2021/07/04 05:10:24;;;;;;;21.43;11.93;;;18.30;99.90;;;;;;4956975;28;20801;-93
2021/07/04 05:12:50;;;;;;;21.07;10.63;;;18.30;99.90;;;;;;4941135;28;20221;-93
2021/07/04 05:15:16;;;;;;;19.13;11.23;;;18.30;99.90;;;;;;4942080;28;20243;-93
2021/07/04 05:17:42;;;;;;;26.00;12.33;;;18.30;99.90;;;;;;4941423;28;20201;-93
2021/07/04 05:20:08;;;;;;;22.33;12.50;;;18.30;99.90;;;;;;4940920;28;20227;-92
2021/07/04 05:22:35;;;;;;;17.40;10.30;;;18.40;99.90;;;;;;4940760;28;20224;-92
2021/07/04 05:25:02;;;;;;;20.40;11.10;;;18.40;99.90;;;;;;4942408;28;20224;-92
2021/07/04 05:27:28;;;;;;;22.00;11.43;;;18.50;99.90;;;;;;4942105;28;20247;-92
2021/07/04 05:29:54;;;;;;;26.73;12.27;;;18.50;99.90;;;;;;4941390;28;20198;-92
2021/07/04 05:32:20;;;;;;;24.03;12.23;;;18.60;99.90;;;;;;4956708;28;20229;-91
2021/07/04 05:34:46;;;;;;;21.07;10.97;;;18.70;99.90;;;;;;4934477;28;20252;-91
2021/07/04 05:37:12;;;;;;;23.93;11.47;;;18.70;99.90;;;;;;4955925;28;20225;-88
2021/07/04 05:39:38;;;;;;;23.50;12.23;;;18.70;99.90;;;;;;4940115;28;20754;-90
2021/07/04 05:42:05;;;;;;;22.00;12.23;;;18.80;99.90;;;;;;4940239;28;20205;-89
2021/07/04 05:44:31;;;;;;;19.37;12.13;;;19.00;99.90;;;;;;4941964;28;20531;-90
2021/07/04 05:46:57;;;;;;;24.87;11.63;;;19.00;99.90;;;;;;4939871;28;20221;-89
2021/07/04 05:49:23;;;;;;;24.83;10.77;;;19.10;99.90;;;;;;4955553;28;20272;-91
2021/07/04 05:51:49;;;;;;;20.97;12.17;;;19.10;99.90;;;;;;4939896;28;20248;-89
2021/07/04 05:54:15;;;;;;;18.03;10.40;;;19.20;99.90;;;;;;4956084;28;20281;-91
2021/07/04 05:56:42;;;;;;;20.00;11.33;;;19.30;99.90;;;;;;4942913;28;20565;-89
2021/07/04 05:59:07;;;;;;;21.87;11.47;;;19.40;99.90;;;;;;4944824;28;20518;-90
2021/07/04 06:01:34;;;;;;;19.53;11.50;;;19.50;99.90;;;;;;4944975;28;20335;-89
2021/07/04 06:04:00;;;;;;;19.13;9.90;;;19.50;99.90;;;;;;4960667;28;20228;-92
2021/07/04 06:06:26;;;;;;;16.03;10.50;;;19.30;99.90;;;;;;4944249;28;20891;-90
2021/07/04 06:08:51;;;;;;;17.00;9.90;;;19.30;99.90;;;;;;4944817;28;20188;-91
2021/07/04 06:11:17;;;;;;;15.60;9.10;;;19.30;99.90;;;;;;4945045;28;20225;-91
2021/07/04 06:13:43;;;;;;;19.37;10.67;;;19.30;99.90;;;;;;4960617;28;20233;-91
2021/07/04 06:16:10;;;;;;;14.40;8.57;;;19.30;99.90;;;;;;4953520;28;20284;-92
2021/07/04 06:18:36;;;;;;;16.73;9.00;;;19.20;99.90;;;;;;4943329;28;20249;-90
2021/07/04 06:21:02;;;;;;;14.87;9.77;;;19.10;99.90;;;;;;4960133;28;20212;-91
2021/07/04 06:23:28;;;;;;;13.47;9.50;;;18.90;99.90;;;;;;4960706;28;20675;-91
2021/07/04 06:25:54;;;;;;;18.03;9.43;;;19.00;99.90;;;;;;4959875;28;20217;-91
2021/07/04 06:28:20;;;;;;;24.47;9.57;;;19.00;99.90;;;;;;4944035;28;20225;-90
2021/07/04 06:30:46;;;;;;;15.63;8.67;;;19.00;99.90;;;;;;4959795;28;20449;-91
2021/07/04 06:33:11;;;;;;;18.03;10.57;;;19.00;99.90;;;;;;4960312;28;20564;-90
2021/07/04 06:35:38;;;;;;;17.57;9.83;;;19.10;99.90;;;;;;4959892;28;20244;-90
2021/07/04 06:38:04;;;;;;;16.23;9.87;;;19.20;99.90;;;;;;4959961;28;20224;-90
2021/07/04 06:40:30;;;;;;;18.60;9.37;;;19.40;99.90;;;;;;4944562;28;20214;-93
2021/07/04 06:42:55;;;;;;;19.13;10.30;;;19.60;99.90;;;;;;4945846;28;20244;-90
2021/07/04 06:45:21;;;;;;;17.13;10.10;;;19.70;99.90;;;;;;4959582;28;20225;-90
2021/07/04 06:47:49;;;;;;;19.83;10.33;;;20.00;99.90;;;;;;4976040;28;20202;-89
2021/07/04 06:50:16;;;;;;;19.80;10.10;;;20.20;99.90;;;;;;4944649;28;20492;-87
2021/07/04 06:52:43;;;;;;;23.57;11.10;;;20.10;99.90;;;;;;4943445;28;20228;-91
2021/07/04 06:55:10;;;;;;;22.43;10.60;;;20.50;99.90;;;;;;4958900;28;20288;-91
2021/07/04 06:57:36;;;;;;;20.33;11.10;;;22.20;99.90;;;;;;4957911;28;20280;-87
2021/07/04 07:00:06;;;;;;;15.40;9.53;;;23.60;99.90;;;;;;4957660;28;20205;-91
2021/07/04 07:02:32;;;;;;;13.23;8.07;;;23.70;99.90;;;;;;4944532;28;20685;-89
2021/07/04 07:04:58;;;;;;;18.33;9.63;;;23.60;99.90;;;;;;4921314;28;20212;-87
2021/07/04 07:07:24;;;;;;;16.00;9.07;;;23.20;99.90;;;;;;4941142;28;20216;-90
2021/07/04 07:09:50;;;;;;;18.67;9.40;;;22.90;99.90;;;;;;4941265;28;20221;-87
2021/07/04 07:12:16;;;;;;;19.77;10.20;;;22.50;99.90;;;;;;4941284;28;20665;-91
2021/07/04 07:14:42;;;;;;;18.80;10.07;;;22.30;99.90;;;;;;4942739;29;20684;-87
2021/07/04 07:17:08;;;;;;;16.07;9.50;;;22.20;99.90;;;;;;4941786;28;20302;-86
2021/07/04 07:19:34;;;;;;;18.90;10.10;;;22.10;99.90;;;;;;4957362;28;20244;-87
2021/07/04 07:22:00;;;;;;;21.27;11.10;;;22.10;99.90;;;;;;4957889;28;20253;-89
2021/07/04 07:24:27;;;;;;;17.63;10.07;;;22.50;99.90;;;;;;4941446;28;20348;-90
2021/07/04 07:26:53;;;;;;;17.97;9.93;;;22.70;99.90;;;;;;4937313;28;20198;-87
2021/07/04 07:29:19;;;;;;;17.60;10.50;;;22.50;99.90;;;;;;4957782;28;20474;-88
2021/07/04 07:31:45;;;;;;;15.70;10.00;;;22.00;99.90;;;;;;4939897;28;20751;-91
2021/07/04 07:34:12;;;;;;;19.67;10.33;;;21.30;99.90;;;;;;4942511;28;20193;-88
2021/07/04 07:36:38;;;;;;;17.43;10.03;;;20.90;99.90;;;;;;4941883;28;20185;-87
2021/07/04 07:39:05;;;;;;;23.33;11.33;;;21.10;99.90;;;;;;4942731;28;20652;-89
2021/07/04 07:41:31;;;;;;;18.93;11.07;;;21.40;99.90;;;;;;4942725;29;20485;-87
2021/07/04 07:43:57;;;;;;;17.30;10.43;;;21.60;99.90;;;;;;4937689;29;20196;-89
2021/07/04 07:46:22;;;;;;;19.17;11.73;;;22.10;99.90;;;;;;4930423;28;20244;-89
2021/07/04 07:48:48;;;;;;;18.70;11.53;;;22.30;99.90;;;;;;4970107;28;20189;-87
2021/07/04 07:51:14;;;;;;;20.17;10.43;;;22.70;99.90;;;;;;4930005;28;20314;-89
2021/07/04 07:53:41;;;;;;;20.47;11.57;;;23.00;99.90;;;;;;4938990;28;20680;-88
2021/07/04 07:56:07;;;;;;;23.20;11.73;;;23.10;99.90;;;;;;4896467;28;20706;-89
2021/07/04 07:58:32;;;;;;;18.00;11.10;;;22.90;99.90;;;;;;4944088;28;20198;-91
2021/07/04 08:00:58;;;;;;;19.83;11.50;;;22.60;99.90;;;;;;4953491;28;20664;-89
2021/07/04 08:03:24;;;;;;;19.93;11.50;;;22.50;99.90;;;;;;4940714;28;20232;-90
2021/07/04 08:05:50;;;;;;;20.13;10.60;;;22.70;99.90;;;;;;4942837;28;20706;-89
2021/07/04 08:08:15;;;;;;;21.10;11.30;;;22.90;99.90;;;;;;4942431;28;20582;-88
2021/07/04 08:10:41;;;;;;;13.73;10.03;;;23.10;99.90;;;;;;4941298;28;20352;-88
2021/07/04 08:13:07;;;;;;;18.00;11.70;;;23.30;99.90;;;;;;4941193;28;20292;-88
2021/07/04 08:15:33;;;;;;;19.27;11.23;;;23.20;99.90;;;;;;4934867;28;20330;-90
2021/07/04 08:17:59;;;;;;;16.90;11.23;;;23.10;99.90;;;;;;4942669;28;20221;-89
2021/07/04 08:20:26;;;;;;;17.17;11.07;;;23.00;99.90;;;;;;4940603;28;20217;-88
2021/07/04 08:22:51;;;;;;;24.70;12.87;;;22.60;99.90;;;;;;4957119;28;20702;-89
2021/07/04 08:25:18;;;;;;;21.07;11.77;;;22.50;99.90;;;;;;4943418;28;20194;-89
2021/07/04 08:27:44;;;;;;;21.77;12.90;;;22.60;99.90;;;;;;4956268;28;20329;-89
2021/07/04 08:30:12;;;;;;;16.83;11.30;;;22.60;99.90;;;;;;4957333;28;20779;-89
2021/07/04 08:32:38;;;;;;;21.13;10.53;;;22.90;99.90;;;;;;4972958;28;20343;-90
2021/07/04 08:35:05;;;;;;;17.27;11.37;;;23.20;99.90;;;;;;4957155;28;20620;-88
2021/07/04 08:37:31;;;;;;;19.30;11.25;;;23.50;99.90;;;;;;4941348;28;20204;-90
2021/07/04 08:39:56;;;;;;;17.77;10.48;;;23.50;99.90;;;;;;4955022;28;20220;-88
2021/07/04 08:42:23;;;;;;;18.90;10.40;;;23.30;99.90;;;;;;4941066;28;20245;-90
2021/07/04 08:44:50;;;;;;;16.92;11.23;;;22.90;99.90;;;;;;4939942;28;20280;-88
2021/07/04 08:47:18;;;;;;;18.03;10.63;;;22.80;99.90;;;;;;4940030;28;20604;-92
2021/07/04 08:49:46;;;;;;;18.57;11.57;;;22.50;99.90;;;;;;4940500;28;20217;-88
2021/07/04 08:52:12;;;;;;;19.47;11.20;;;22.90;99.90;;;;;;4957265;28;20198;-90
2021/07/04 08:54:39;;;;;;;20.10;11.23;;;23.20;99.90;;;;;;4939292;28;20636;-89
2021/07/04 08:57:08;;;;;;;16.43;10.93;;;23.50;99.90;;;;;;4941755;28;20229;-88
2021/07/04 08:59:38;;;;;;;17.67;11.00;;;24.00;99.90;;;;;;4955727;28;20255;-88
2021/07/04 09:02:10;;;;;;;15.02;9.73;;;24.40;99.90;;;;;;4941595;28;20828;-88
2021/07/04 09:04:37;;;;;;;16.85;10.93;;;24.60;99.90;;;;;;4932744;28;20280;-86
2021/07/04 09:07:03;;;;;;;17.05;10.60;;;25.50;99.90;;;;;;4939465;28;20208;-88
2021/07/04 09:09:31;;;;;;;17.90;9.75;;;25.70;99.90;;;;;;4941789;28;20205;-88
2021/07/04 09:12:06;;;;;;;14.82;8.98;;;25.40;99.90;;;;;;4940781;28;20653;-90
2021/07/04 09:14:46;;;;;;;15.77;10.32;;;24.70;99.90;;;;;;4942089;28;20801;-91
2021/07/04 09:17:17;;;;;;;15.88;10.02;;;24.00;99.90;;;;;;4956735;28;20225;-89
2021/07/04 09:19:57;;;;;;;13.98;9.32;;;24.00;99.90;;;;;;4942468;28;20256;-88
2021/07/04 09:22:41;;;;;;;18.13;9.57;;;23.80;99.90;;;;;;4942736;28;20457;-86
2021/07/04 09:25:22;;;;;;;14.02;9.07;;;23.80;99.90;;;;;;4959343;28;20307;-89
2021/07/04 09:28:11;;;;;;;14.95;9.80;;;23.90;99.90;;;;;;4945061;28;20213;-89
2021/07/04 09:30:51;;;;;;;12.05;8.75;;;23.70;99.90;;;;;;4974722;28;20229;-89
2021/07/04 09:33:17;;;;;;;11.95;8.63;;;23.60;99.90;;;;;;4914503;28;20247;-92
2021/07/04 09:35:58;;;;;;;12.35;8.60;;;23.10;99.90;;;;;;4937825;28;20316;-88
2021/07/04 09:38:32;;;;;;;14.95;8.43;;;23.00;99.90;;;;;;4964266;28;20412;-87
2021/07/04 09:40:59;;;;;;;12.30;7.75;;;22.70;99.90;;;;;;4949153;28;20221;-87
2021/07/04 09:43:28;;;;;;;9.93;7.97;;;22.70;99.90;;;;;;4949212;28;20316;-88
2021/07/04 09:45:58;;;;;;;11.10;6.97;;;23.50;99.90;;;;;;4963531;28;20221;-87
2021/07/04 09:48:38;;;;;;;11.52;6.53;;;24.00;99.90;;;;;;4964106;28;20648;-89
2021/07/04 09:51:15;;;;;;;12.48;7.82;;;24.70;99.90;;;;;;4963496;28;20232;-88
2021/07/04 09:53:48;;;;;;;10.88;7.00;;;25.40;99.90;;;;;;4964778;28;20424;-89
2021/07/04 09:56:25;;;;;;;11.02;7.32;;;26.70;99.90;;;;;;4964383;28;20320;-88
2021/07/04 09:58:59;;;;;;;8.95;6.13;;;27.70;99.90;;;;;;4963512;28;20304;-90
2021/07/04 10:01:35;;;;;;;10.45;6.53;;;27.70;99.90;;;;;;4964078;28;20809;-88
2021/07/04 10:04:05;;;;;;;9.73;5.93;;;27.00;99.90;;;;;;4963792;28;20252;-87
2021/07/04 10:06:48;;;;;;;7.13;5.57;;;26.90;99.90;;;;;;4948420;28;20227;-90
2021/07/04 10:09:15;;;;;;;7.05;5.07;;;26.40;99.90;;;;;;4948190;28;20173;-90
2021/07/04 10:11:41;;;;;;;8.05;4.88;;;26.90;99.90;;;;;;4965187;28;20209;-89
2021/07/04 10:14:07;;;;;;;9.50;6.07;;;27.60;99.90;;;;;;4948900;28;20616;-90
2021/07/04 10:16:33;;;;;;;8.40;5.82;;;27.50;99.90;;;;;;4948074;28;20241;-89
2021/07/04 10:19:02;;;;;;;6.85;4.80;;;26.90;99.90;;;;;;4964582;28;20249;-90
2021/07/04 10:21:29;;;;;;;6.63;4.45;;;27.20;99.90;;;;;;4947824;28;20185;-89
2021/07/04 10:23:59;;;;;;;6.35;4.55;;;28.50;99.90;;;;;;4965445;28;20177;-92
2021/07/04 10:26:26;;;;;;;8.38;5.15;;;30.20;99.90;;;;;;4949078;28;20217;-88
2021/07/04 10:28:56;;;;;;;8.68;4.97;;;31.50;99.90;;;;;;4948211;28;20255;-91
2021/07/04 10:31:22;;;;;;;11.75;5.93;;;31.70;99.90;;;;;;4964785;28;20233;-92
2021/07/04 10:34:12;;;;;;;7.38;4.95;;;32.10;99.90;;;;;;4948558;28;20276;-91
2021/07/04 10:37:00;;;;;;;7.30;5.22;;;31.60;99.90;;;;;;4964646;28;20300;-91
2021/07/04 10:39:27;;;;;;;7.43;4.93;;;31.40;99.90;;;;;;4964174;28;20209;-92
2021/07/04 10:42:02;;;;;;;8.10;5.07;;;30.90;99.90;;;;;;4965366;28;20218;-91
2021/07/04 10:44:39;;;;;;;7.85;5.30;;;29.70;99.90;;;;;;4968827;28;20228;-91
2021/07/04 10:47:11;;;;;;;9.02;6.15;;;28.60;99.90;;;;;;4953106;28;20220;-89
2021/07/04 10:49:40;;;;;;;10.52;7.18;;;28.00;99.90;;;;;;4953755;28;20244;-92
2021/07/04 10:52:10;;;;;;;13.88;7.78;;;27.50;99.90;;;;;;4968291;28;20236;-93
2021/07/04 10:54:45;;;;;;;17.48;9.88;;;26.30;99.90;;;;;;4968571;28;20209;-92
2021/07/04 10:57:31;;;;;;;12.75;8.35;;;25.90;99.90;;;;;;4968785;28;20180;-92
2021/07/04 11:00:00;;;;;;;14.15;7.65;;;26.30;99.90;;;;;;4969333;28;20225;-93
2021/07/04 11:02:48;;;;;;;13.18;8.43;;;26.50;99.90;;;;;;4953227;28;20236;-91
2021/07/04 11:05:35;;;;;;;12.10;7.65;;;27.40;99.90;;;;;;4953678;28;20309;-92
2021/07/04 11:08:05;;;;;;;14.38;8.02;;;26.70;99.90;;;;;;4967467;28;20675;-90
2021/07/04 11:10:33;;;;;;;10.30;6.78;;;24.80;99.90;;;;;;4967682;28;20225;-91
2021/07/04 11:13:09;;;;;;;11.57;7.63;;;23.90;99.90;;;;;;4952939;28;20221;-91
2021/07/04 11:15:39;;;;;;;11.75;7.25;;;23.50;99.90;;;;;;4967585;28;20241;-91
2021/07/04 11:18:13;;;;;;;11.77;7.53;;;23.60;99.90;;;;;;4969004;28;20309;-91
2021/07/04 11:20:39;;;;;;;10.88;7.00;;;24.10;99.90;;;;;;4952200;28;20217;-91
2021/07/04 11:23:32;;;;;;;11.25;7.13;;;24.20;99.90;;;;;;4968239;28;20232;-91
2021/07/04 11:25:59;;;;;;;11.48;6.93;;;23.90;99.90;;;;;;4950756;28;20217;-92
2021/07/04 11:28:33;;;;;;;8.20;5.85;;;23.80;99.90;;;;;;4953140;28;20225;-92
2021/07/04 11:30:59;;;;;;;5.65;4.18;;;23.60;99.90;;;;;;4951499;28;20229;-91
2021/07/04 11:33:40;;;;;;;6.30;3.90;;;23.00;99.90;;;;;;4967884;28;20650;-90
2021/07/04 11:36:15;;;;;;;6.78;4.68;;;22.70;99.90;;;;;;4968471;28;20232;-89
2021/07/04 11:39:08;;;;;;;5.38;3.83;;;22.90;99.90;;;;;;4967915;28;20212;-91
2021/07/04 11:41:50;;;;;;;6.30;4.50;;;22.70;99.90;;;;;;4940466;28;20241;-91
2021/07/04 11:44:20;;;;;;;8.15;4.30;;;23.00;99.90;;;;;;4950387;28;20174;-89
2021/07/04 11:46:49;;;;;;;6.30;3.95;;;23.20;99.90;;;;;;4951720;28;20272;-89
2021/07/04 11:49:20;;;;;;;3.75;3.15;;;23.50;99.90;;;;;;4952291;28;20223;-95
2021/07/04 11:51:58;;;;;;;5.88;3.97;;;24.10;99.90;;;;;;4967733;28;20237;-93
2021/07/04 11:54:32;;;;;;;7.20;4.10;;;24.30;99.90;;;;;;4966726;28;20233;-93
2021/07/04 11:59:54;;;;;;;5.20;2.92;;;24.20;99.90;;;;;;4951991;28;20299;-92
2021/07/04 12:02:20;;;;;;;3.80;2.78;;;24.60;99.90;;;;;;4951338;28;20186;-93
2021/07/04 12:04:46;;;;;;;4.82;3.90;;;24.10;99.90;;;;;;4952362;28;20225;-93
2021/07/04 12:07:15;;;;;;;4.07;2.83;;;24.00;99.90;;;;;;4951674;28;20225;-94
2021/07/04 12:09:48;;;;;;;4.70;3.72;;;23.90;99.90;;;;;;4967187;28;20221;-91
2021/07/04 12:12:29;;;;;;;3.85;2.95;;;23.80;99.90;;;;;;4967689;28;20237;-92
2021/07/04 12:15:03;;;;;;;5.00;3.40;;;23.50;99.90;;;;;;4952197;28;20752;-90
2021/07/04 12:17:32;;;;;;;6.32;3.63;;;23.40;99.90;;;;;;4952426;28;20185;-93
2021/07/04 12:20:01;;;;;;;7.68;3.47;;;23.80;99.90;;;;;;4967675;28;20190;-93
2021/07/04 12:22:29;;;;;;;4.65;3.15;;;24.70;99.90;;;;;;4967327;28;20225;-93
2021/07/04 12:24:57;;;;;;;3.88;3.03;;;24.80;99.90;;;;;;4951905;28;20796;-93
2021/07/04 12:27:42;;;;;;;2.80;2.38;;;24.70;99.90;;;;;;4952461;28;20308;-95
2021/07/04 12:30:25;;;;;;;3.42;2.70;;;23.60;99.90;;;;;;4967240;28;20217;-93
2021/07/04 12:33:00;;;;;;;3.90;2.80;;;23.20;99.90;;;;;;4951913;28;20232;-91
2021/07/04 12:35:32;;;;;;;5.55;2.92;;;23.20;99.90;;;;;;4967083;28;20161;-94
2021/07/04 12:38:05;;;;;;;3.72;2.67;;;23.10;99.90;;;;;;4967576;28;20184;-91
2021/07/04 12:40:56;;;;;;;6.75;2.78;;;23.20;99.90;;;;;;4967182;28;20229;-90
2021/07/04 12:43:28;;;;;;;4.28;2.97;;;23.10;99.90;;;;;;4961036;28;20228;-94